sensor_id;sensor_type;location;lat;lon;timestamp;temperature;humidity
19908;DHT22;10116;53.112;7.356;2023-06-14T00:01:38;28.10;45.50
19908;DHT22;10116;53.112;7.356;2023-06-14T00:04:03;28.00;45.40
19908;DHT22;10116;53.112;7.356;2023-06-14T00:06:30;28.00;45.30
19908;DHT22;10116;53.112;7.356;2023-06-14T00:08:56;28.00;45.40
19908;DHT22;10116;53.112;7.356;2023-06-14T00:11:21;28.00;45.30
19908;DHT22;10116;53.112;7.356;2023-06-14T00:13:47;28.00;46.60
19908;DHT22;10116;53.112;7.356;2023-06-14T00:16:12;28.00;45.20
19908;DHT22;10116;53.112;7.356;2023-06-14T00:18:38;28.00;45.80
19908;DHT22;10116;53.112;7.356;2023-06-14T00:21:04;28.00;46.20
19908;DHT22;10116;53.112;7.356;2023-06-14T00:23:30;28.00;45.30
19908;DHT22;10116;53.112;7.356;2023-06-14T00:25:56;28.00;45.50
19908;DHT22;10116;53.112;7.356;2023-06-14T00:28:22;28.00;46.00
19908;DHT22;10116;53.112;7.356;2023-06-14T00:30:47;28.00;46.10
19908;DHT22;10116;53.112;7.356;2023-06-14T00:33:13;28.00;46.20
19908;DHT22;10116;53.112;7.356;2023-06-14T00:35:39;27.90;46.00
19908;DHT22;10116;53.112;7.356;2023-06-14T00:38:05;27.90;46.10
19908;DHT22;10116;53.112;7.356;2023-06-14T00:40:30;27.90;45.90
19908;DHT22;10116;53.112;7.356;2023-06-14T00:42:56;27.90;46.10
19908;DHT22;10116;53.112;7.356;2023-06-14T00:45:22;27.90;46.00
19908;DHT22;10116;53.112;7.356;2023-06-14T00:47:48;27.90;46.70
19908;DHT22;10116;53.112;7.356;2023-06-14T00:50:16;27.90;45.90
19908;DHT22;10116;53.112;7.356;2023-06-14T00:52:42;27.90;47.20
19908;DHT22;10116;53.112;7.356;2023-06-14T00:55:08;27.90;46.40
19908;DHT22;10116;53.112;7.356;2023-06-14T00:57:34;27.90;46.60
19908;DHT22;10116;53.112;7.356;2023-06-14T01:00:03;27.90;46.60
19908;DHT22;10116;53.112;7.356;2023-06-14T01:02:30;27.90;47.20
19908;DHT22;10116;53.112;7.356;2023-06-14T01:04:55;27.90;46.60
19908;DHT22;10116;53.112;7.356;2023-06-14T01:07:38;27.80;47.80
19908;DHT22;10116;53.112;7.356;2023-06-14T01:13:27;27.90;47.10
19908;DHT22;10116;53.112;7.356;2023-06-14T01:15:55;27.80;47.00
19908;DHT22;10116;53.112;7.356;2023-06-14T01:18:22;27.80;47.40
19908;DHT22;10116;53.112;7.356;2023-06-14T01:20:49;27.80;47.10
19908;DHT22;10116;53.112;7.356;2023-06-14T01:23:19;27.80;47.80
19908;DHT22;10116;53.112;7.356;2023-06-14T01:25:46;27.80;47.10
19908;DHT22;10116;53.112;7.356;2023-06-14T01:28:13;27.80;47.50
19908;DHT22;10116;53.112;7.356;2023-06-14T01:30:44;27.80;47.70
19908;DHT22;10116;53.112;7.356;2023-06-14T01:33:18;27.80;47.30
19908;DHT22;10116;53.112;7.356;2023-06-14T01:35:47;27.70;47.40
19908;DHT22;10116;53.112;7.356;2023-06-14T01:38:13;27.80;47.30
19908;DHT22;10116;53.112;7.356;2023-06-14T01:40:40;27.70;47.20
19908;DHT22;10116;53.112;7.356;2023-06-14T01:43:06;27.70;60.70
19908;DHT22;10116;53.112;7.356;2023-06-14T01:45:33;27.80;48.10
19908;DHT22;10116;53.112;7.356;2023-06-14T01:48:00;27.70;47.80
19908;DHT22;10116;53.112;7.356;2023-06-14T01:50:32;27.70;47.60
19908;DHT22;10116;53.112;7.356;2023-06-14T01:52:58;27.70;49.10
19908;DHT22;10116;53.112;7.356;2023-06-14T01:55:24;27.70;47.90
19908;DHT22;10116;53.112;7.356;2023-06-14T01:57:52;27.70;48.40
19908;DHT22;10116;53.112;7.356;2023-06-14T02:00:19;27.70;48.40
19908;DHT22;10116;53.112;7.356;2023-06-14T02:02:44;27.70;48.80
19908;DHT22;10116;53.112;7.356;2023-06-14T02:05:11;27.70;49.00
19908;DHT22;10116;53.112;7.356;2023-06-14T02:07:37;27.70;49.30
19908;DHT22;10116;53.112;7.356;2023-06-14T02:10:04;27.70;48.60
19908;DHT22;10116;53.112;7.356;2023-06-14T02:12:30;27.60;48.40
19908;DHT22;10116;53.112;7.356;2023-06-14T02:14:55;27.60;48.00
19908;DHT22;10116;53.112;7.356;2023-06-14T02:17:22;27.60;48.80
19908;DHT22;10116;53.112;7.356;2023-06-14T02:19:48;27.60;49.00
19908;DHT22;10116;53.112;7.356;2023-06-14T02:22:14;27.60;49.10
19908;DHT22;10116;53.112;7.356;2023-06-14T02:24:41;27.60;49.10
19908;DHT22;10116;53.112;7.356;2023-06-14T02:27:07;27.60;48.90
19908;DHT22;10116;53.112;7.356;2023-06-14T02:29:35;27.60;50.00
19908;DHT22;10116;53.112;7.356;2023-06-14T02:32:01;27.60;49.20
19908;DHT22;10116;53.112;7.356;2023-06-14T02:34:27;27.60;49.40
19908;DHT22;10116;53.112;7.356;2023-06-14T02:36:52;27.60;49.40
19908;DHT22;10116;53.112;7.356;2023-06-14T02:39:18;27.50;49.70
19908;DHT22;10116;53.112;7.356;2023-06-14T02:41:46;27.50;49.70
19908;DHT22;10116;53.112;7.356;2023-06-14T02:44:13;27.50;50.30
19908;DHT22;10116;53.112;7.356;2023-06-14T02:46:39;27.50;50.30
19908;DHT22;10116;53.112;7.356;2023-06-14T02:49:05;27.50;49.80
19908;DHT22;10116;53.112;7.356;2023-06-14T02:51:30;27.50;49.90
19908;DHT22;10116;53.112;7.356;2023-06-14T02:53:56;27.50;49.70
19908;DHT22;10116;53.112;7.356;2023-06-14T02:56:22;27.50;50.90
19908;DHT22;10116;53.112;7.356;2023-06-14T02:58:48;27.50;50.10
19908;DHT22;10116;53.112;7.356;2023-06-14T03:01:14;27.50;50.10
19908;DHT22;10116;53.112;7.356;2023-06-14T03:03:40;27.50;50.10
19908;DHT22;10116;53.112;7.356;2023-06-14T03:06:05;27.50;51.00
19908;DHT22;10116;53.112;7.356;2023-06-14T03:08:31;27.60;51.10
19908;DHT22;10116;53.112;7.356;2023-06-14T03:11:04;27.60;51.90
19908;DHT22;10116;53.112;7.356;2023-06-14T03:13:34;27.60;51.80
19908;DHT22;10116;53.112;7.356;2023-06-14T03:15:59;27.60;52.90
19908;DHT22;10116;53.112;7.356;2023-06-14T03:18:29;27.70;52.40
19908;DHT22;10116;53.112;7.356;2023-06-14T03:20:56;27.70;52.60
19908;DHT22;10116;53.112;7.356;2023-06-14T03:23:24;27.70;52.80
19908;DHT22;10116;53.112;7.356;2023-06-14T03:25:50;27.70;52.70
19908;DHT22;10116;53.112;7.356;2023-06-14T03:28:17;27.70;52.40
19908;DHT22;10116;53.112;7.356;2023-06-14T03:30:42;27.70;52.80
19908;DHT22;10116;53.112;7.356;2023-06-14T03:33:08;27.70;52.70
19908;DHT22;10116;53.112;7.356;2023-06-14T03:35:34;27.80;53.40
19908;DHT22;10116;53.112;7.356;2023-06-14T03:38:00;27.80;53.90
19908;DHT22;10116;53.112;7.356;2023-06-14T03:40:26;27.90;54.50
19908;DHT22;10116;53.112;7.356;2023-06-14T03:42:54;27.90;54.50
19908;DHT22;10116;53.112;7.356;2023-06-14T03:45:19;27.90;54.60
19908;DHT22;10116;53.112;7.356;2023-06-14T03:47:45;27.90;54.40
19908;DHT22;10116;53.112;7.356;2023-06-14T03:50:11;28.00;54.60
19908;DHT22;10116;53.112;7.356;2023-06-14T03:52:37;28.00;55.30
19908;DHT22;10116;53.112;7.356;2023-06-14T03:55:04;28.00;55.00
19908;DHT22;10116;53.112;7.356;2023-06-14T03:57:30;28.00;54.70
19908;DHT22;10116;53.112;7.356;2023-06-14T03:59:56;28.00;54.70
19908;DHT22;10116;53.112;7.356;2023-06-14T04:02:22;28.00;54.60
19908;DHT22;10116;53.112;7.356;2023-06-14T04:04:48;28.00;54.60
19908;DHT22;10116;53.112;7.356;2023-06-14T04:07:17;28.00;55.10
19908;DHT22;10116;53.112;7.356;2023-06-14T04:09:44;28.00;55.10
19908;DHT22;10116;53.112;7.356;2023-06-14T04:12:10;28.00;54.80
19908;DHT22;10116;53.112;7.356;2023-06-14T04:14:37;28.00;54.50
19908;DHT22;10116;53.112;7.356;2023-06-14T04:17:03;28.00;55.10
19908;DHT22;10116;53.112;7.356;2023-06-14T04:19:28;28.10;55.20
19908;DHT22;10116;53.112;7.356;2023-06-14T04:21:54;28.10;55.80
19908;DHT22;10116;53.112;7.356;2023-06-14T04:24:20;28.00;69.90
19908;DHT22;10116;53.112;7.356;2023-06-14T04:26:45;28.10;56.30
19908;DHT22;10116;53.112;7.356;2023-06-14T04:29:14;28.10;57.20
19908;DHT22;10116;53.112;7.356;2023-06-14T04:31:43;28.10;56.30
19908;DHT22;10116;53.112;7.356;2023-06-14T04:34:10;28.20;56.50
19908;DHT22;10116;53.112;7.356;2023-06-14T04:36:42;28.20;56.50
19908;DHT22;10116;53.112;7.356;2023-06-14T04:39:12;28.20;56.70
19908;DHT22;10116;53.112;7.356;2023-06-14T04:41:38;28.30;57.30
19908;DHT22;10116;53.112;7.356;2023-06-14T04:44:04;28.30;57.60
19908;DHT22;10116;53.112;7.356;2023-06-14T04:46:30;28.30;58.20
19908;DHT22;10116;53.112;7.356;2023-06-14T04:48:57;28.40;58.80
19908;DHT22;10116;53.112;7.356;2023-06-14T04:51:23;28.40;58.00
19908;DHT22;10116;53.112;7.356;2023-06-14T04:53:56;28.40;58.80
19908;DHT22;10116;53.112;7.356;2023-06-14T04:56:26;28.40;58.50
19908;DHT22;10116;53.112;7.356;2023-06-14T04:58:51;28.50;58.90
19908;DHT22;10116;53.112;7.356;2023-06-14T05:01:18;28.50;58.90
19908;DHT22;10116;53.112;7.356;2023-06-14T05:03:44;28.60;58.90
19908;DHT22;10116;53.112;7.356;2023-06-14T05:06:11;28.60;59.40
19908;DHT22;10116;53.112;7.356;2023-06-14T05:08:37;28.60;60.90
19908;DHT22;10116;53.112;7.356;2023-06-14T05:11:02;28.60;60.50
19908;DHT22;10116;53.112;7.356;2023-06-14T05:13:28;28.70;61.10
19908;DHT22;10116;53.112;7.356;2023-06-14T05:15:54;28.70;59.90
19908;DHT22;10116;53.112;7.356;2023-06-14T05:18:19;28.70;60.90
19908;DHT22;10116;53.112;7.356;2023-06-14T05:20:45;28.80;60.50
19908;DHT22;10116;53.112;7.356;2023-06-14T05:23:11;28.80;60.60
19908;DHT22;10116;53.112;7.356;2023-06-14T05:25:45;28.80;78.10
19908;DHT22;10116;53.112;7.356;2023-06-14T05:28:11;28.80;60.50
19908;DHT22;10116;53.112;7.356;2023-06-14T05:30:39;28.80;61.10
19908;DHT22;10116;53.112;7.356;2023-06-14T05:33:05;28.70;59.50
19908;DHT22;10116;53.112;7.356;2023-06-14T05:35:31;28.70;58.90
19908;DHT22;10116;53.112;7.356;2023-06-14T05:37:56;28.80;59.90
19908;DHT22;10116;53.112;7.356;2023-06-14T05:40:22;28.80;60.70
19908;DHT22;10116;53.112;7.356;2023-06-14T05:42:48;28.90;62.10
19908;DHT22;10116;53.112;7.356;2023-06-14T05:45:13;28.90;61.60
19908;DHT22;10116;53.112;7.356;2023-06-14T05:47:41;29.00;61.90
19908;DHT22;10116;53.112;7.356;2023-06-14T05:50:07;29.00;62.10
19908;DHT22;10116;53.112;7.356;2023-06-14T05:52:34;29.00;61.60
19908;DHT22;10116;53.112;7.356;2023-06-14T05:54:59;29.00;61.90
19908;DHT22;10116;53.112;7.356;2023-06-14T05:57:25;29.10;61.80
19908;DHT22;10116;53.112;7.356;2023-06-14T05:59:51;29.10;62.20
19908;DHT22;10116;53.112;7.356;2023-06-14T06:02:16;29.10;62.90
19908;DHT22;10116;53.112;7.356;2023-06-14T06:04:42;29.10;62.20
19908;DHT22;10116;53.112;7.356;2023-06-14T06:07:07;29.10;62.10
19908;DHT22;10116;53.112;7.356;2023-06-14T06:09:33;29.10;61.60
19908;DHT22;10116;53.112;7.356;2023-06-14T06:11:59;29.00;61.00
19908;DHT22;10116;53.112;7.356;2023-06-14T06:14:24;29.00;60.80
19908;DHT22;10116;53.112;7.356;2023-06-14T06:16:50;29.00;61.10
19908;DHT22;10116;53.112;7.356;2023-06-14T06:19:18;29.00;60.40
19908;DHT22;10116;53.112;7.356;2023-06-14T06:21:43;29.00;60.50
19908;DHT22;10116;53.112;7.356;2023-06-14T06:24:09;29.00;60.40
19908;DHT22;10116;53.112;7.356;2023-06-14T06:26:35;29.00;60.10
19908;DHT22;10116;53.112;7.356;2023-06-14T06:29:00;28.90;60.30
19908;DHT22;10116;53.112;7.356;2023-06-14T06:31:26;28.90;61.20
19908;DHT22;10116;53.112;7.356;2023-06-14T06:33:53;28.90;60.10
19908;DHT22;10116;53.112;7.356;2023-06-14T06:36:20;28.90;59.80
19908;DHT22;10116;53.112;7.356;2023-06-14T06:38:47;28.90;59.70
19908;DHT22;10116;53.112;7.356;2023-06-14T06:41:12;28.90;59.30
19908;DHT22;10116;53.112;7.356;2023-06-14T06:43:38;28.80;59.60
19908;DHT22;10116;53.112;7.356;2023-06-14T06:46:03;28.80;59.70
19908;DHT22;10116;53.112;7.356;2023-06-14T06:48:29;28.80;59.60
19908;DHT22;10116;53.112;7.356;2023-06-14T06:50:55;28.80;59.40
19908;DHT22;10116;53.112;7.356;2023-06-14T06:53:21;28.80;59.50
19908;DHT22;10116;53.112;7.356;2023-06-14T06:55:46;28.80;59.20
19908;DHT22;10116;53.112;7.356;2023-06-14T06:58:13;28.80;59.40
19908;DHT22;10116;53.112;7.356;2023-06-14T07:00:39;28.80;59.30
19908;DHT22;10116;53.112;7.356;2023-06-14T07:03:05;28.80;59.80
19908;DHT22;10116;53.112;7.356;2023-06-14T07:05:30;28.70;59.70
19908;DHT22;10116;53.112;7.356;2023-06-14T07:07:56;28.70;59.40
19908;DHT22;10116;53.112;7.356;2023-06-14T07:10:22;28.70;59.10
19908;DHT22;10116;53.112;7.356;2023-06-14T07:12:50;28.70;59.70
19908;DHT22;10116;53.112;7.356;2023-06-14T07:15:15;28.70;59.00
19908;DHT22;10116;53.112;7.356;2023-06-14T07:17:41;28.70;59.70
19908;DHT22;10116;53.112;7.356;2023-06-14T07:20:08;28.70;59.30
19908;DHT22;10116;53.112;7.356;2023-06-14T07:22:40;28.70;59.70
19908;DHT22;10116;53.112;7.356;2023-06-14T07:25:09;28.80;60.00
19908;DHT22;10116;53.112;7.356;2023-06-14T07:27:35;28.70;60.70
19908;DHT22;10116;53.112;7.356;2023-06-14T07:30:01;28.80;59.50
19908;DHT22;10116;53.112;7.356;2023-06-14T07:32:26;28.80;61.50
19908;DHT22;10116;53.112;7.356;2023-06-14T07:34:52;28.80;60.10
19908;DHT22;10116;53.112;7.356;2023-06-14T07:37:17;28.80;60.50
19908;DHT22;10116;53.112;7.356;2023-06-14T07:39:43;28.80;60.30
19908;DHT22;10116;53.112;7.356;2023-06-14T07:42:08;28.80;61.90
19908;DHT22;10116;53.112;7.356;2023-06-14T07:44:34;28.80;60.20
19908;DHT22;10116;53.112;7.356;2023-06-14T07:47:00;28.80;60.20
19908;DHT22;10116;53.112;7.356;2023-06-14T07:49:26;28.70;59.60
19908;DHT22;10116;53.112;7.356;2023-06-14T07:51:52;28.70;59.90
19908;DHT22;10116;53.112;7.356;2023-06-14T07:54:19;28.70;60.30
19908;DHT22;10116;53.112;7.356;2023-06-14T07:56:45;28.70;59.50
19908;DHT22;10116;53.112;7.356;2023-06-14T07:59:10;28.70;59.60
19908;DHT22;10116;53.112;7.356;2023-06-14T08:01:36;28.70;59.40
19908;DHT22;10116;53.112;7.356;2023-06-14T08:04:01;28.70;59.40
19908;DHT22;10116;53.112;7.356;2023-06-14T08:06:27;28.70;59.90
19908;DHT22;10116;53.112;7.356;2023-06-14T08:08:53;28.70;59.30
19908;DHT22;10116;53.112;7.356;2023-06-14T08:11:18;28.70;60.70
19908;DHT22;10116;53.112;7.356;2023-06-14T08:13:44;28.70;59.50
19908;DHT22;10116;53.112;7.356;2023-06-14T08:16:09;28.70;59.90
19908;DHT22;10116;53.112;7.356;2023-06-14T08:18:36;28.70;59.50
19908;DHT22;10116;53.112;7.356;2023-06-14T08:21:01;28.70;60.20
19908;DHT22;10116;53.112;7.356;2023-06-14T08:23:28;28.70;59.60
19908;DHT22;10116;53.112;7.356;2023-06-14T08:25:55;28.70;59.40
19908;DHT22;10116;53.112;7.356;2023-06-14T08:28:21;28.60;59.60
19908;DHT22;10116;53.112;7.356;2023-06-14T08:30:46;28.70;60.20
19908;DHT22;10116;53.112;7.356;2023-06-14T08:33:12;28.60;59.40
19908;DHT22;10116;53.112;7.356;2023-06-14T08:35:38;28.60;59.30
19908;DHT22;10116;53.112;7.356;2023-06-14T08:38:05;28.60;60.40
19908;DHT22;10116;53.112;7.356;2023-06-14T08:40:30;28.60;59.50
19908;DHT22;10116;53.112;7.356;2023-06-14T08:42:56;28.60;59.90
19908;DHT22;10116;53.112;7.356;2023-06-14T08:45:23;28.60;59.10
19908;DHT22;10116;53.112;7.356;2023-06-14T08:47:50;28.60;60.00
19908;DHT22;10116;53.112;7.356;2023-06-14T08:50:24;28.60;58.90
19908;DHT22;10116;53.112;7.356;2023-06-14T08:52:57;28.50;58.80
19908;DHT22;10116;53.112;7.356;2023-06-14T08:55:27;28.50;59.40
19908;DHT22;10116;53.112;7.356;2023-06-14T08:57:57;28.60;59.50
19908;DHT22;10116;53.112;7.356;2023-06-14T09:00:25;28.60;59.70
19908;DHT22;10116;53.112;7.356;2023-06-14T09:02:52;28.60;59.60
19908;DHT22;10116;53.112;7.356;2023-06-14T09:05:22;28.60;62.50
19908;DHT22;10116;53.112;7.356;2023-06-14T09:07:48;28.60;60.30
19908;DHT22;10116;53.112;7.356;2023-06-14T09:10:16;28.60;60.60
19908;DHT22;10116;53.112;7.356;2023-06-14T09:12:43;28.70;60.20
19908;DHT22;10116;53.112;7.356;2023-06-14T09:15:09;28.70;60.00
19908;DHT22;10116;53.112;7.356;2023-06-14T09:17:35;28.70;61.20
19908;DHT22;10116;53.112;7.356;2023-06-14T09:20:03;28.70;61.40
19908;DHT22;10116;53.112;7.356;2023-06-14T09:22:32;28.70;60.60
19908;DHT22;10116;53.112;7.356;2023-06-14T09:24:59;28.70;61.50
19908;DHT22;10116;53.112;7.356;2023-06-14T09:27:28;28.70;60.90
19908;DHT22;10116;53.112;7.356;2023-06-14T09:29:54;28.70;61.00
19908;DHT22;10116;53.112;7.356;2023-06-14T09:32:23;28.70;60.50
19908;DHT22;10116;53.112;7.356;2023-06-14T09:34:49;28.70;60.00
19908;DHT22;10116;53.112;7.356;2023-06-14T09:37:27;28.70;60.70
19908;DHT22;10116;53.112;7.356;2023-06-14T09:39:53;28.70;61.50
19908;DHT22;10116;53.112;7.356;2023-06-14T09:42:19;28.70;60.90
19908;DHT22;10116;53.112;7.356;2023-06-14T09:44:48;28.70;60.40
19908;DHT22;10116;53.112;7.356;2023-06-14T09:47:15;28.70;60.50
19908;DHT22;10116;53.112;7.356;2023-06-14T09:49:42;28.70;61.10
19908;DHT22;10116;53.112;7.356;2023-06-14T09:52:14;28.70;60.00
19908;DHT22;10116;53.112;7.356;2023-06-14T09:54:44;28.70;59.50
19908;DHT22;10116;53.112;7.356;2023-06-14T09:57:13;28.70;59.80
19908;DHT22;10116;53.112;7.356;2023-06-14T09:59:43;28.70;59.30
19908;DHT22;10116;53.112;7.356;2023-06-14T10:02:14;28.70;60.10
19908;DHT22;10116;53.112;7.356;2023-06-14T10:04:46;28.70;75.40
19908;DHT22;10116;53.112;7.356;2023-06-14T10:07:19;28.70;59.50
19908;DHT22;10116;53.112;7.356;2023-06-14T10:09:47;28.70;59.50
19908;DHT22;10116;53.112;7.356;2023-06-14T10:12:17;28.70;58.80
19908;DHT22;10116;53.112;7.356;2023-06-14T10:14:50;28.70;59.00
19908;DHT22;10116;53.112;7.356;2023-06-14T10:22:51;28.60;58.60
19908;DHT22;10116;53.112;7.356;2023-06-14T10:25:29;28.60;58.20
19908;DHT22;10116;53.112;7.356;2023-06-14T10:30:39;28.60;59.30
19908;DHT22;10116;53.112;7.356;2023-06-14T10:33:07;28.60;58.10
19908;DHT22;10116;53.112;7.356;2023-06-14T10:35:34;28.60;58.10
19908;DHT22;10116;53.112;7.356;2023-06-14T10:38:11;28.60;58.30
19908;DHT22;10116;53.112;7.356;2023-06-14T10:40:36;28.70;58.60
19908;DHT22;10116;53.112;7.356;2023-06-14T10:43:21;28.70;58.60
19908;DHT22;10116;53.112;7.356;2023-06-14T10:48:42;28.80;61.20
19908;DHT22;10116;53.112;7.356;2023-06-14T10:51:19;28.80;59.20
19908;DHT22;10116;53.112;7.356;2023-06-14T10:53:50;28.80;58.80
19908;DHT22;10116;53.112;7.356;2023-06-14T10:56:29;28.80;58.70
19908;DHT22;10116;53.112;7.356;2023-06-14T10:58:57;28.80;59.00
19908;DHT22;10116;53.112;7.356;2023-06-14T11:04:42;28.90;59.60
19908;DHT22;10116;53.112;7.356;2023-06-14T11:12:41;28.90;58.70
19908;DHT22;10116;53.112;7.356;2023-06-14T11:15:09;28.90;58.90
19908;DHT22;10116;53.112;7.356;2023-06-14T11:17:35;28.90;58.70
19908;DHT22;10116;53.112;7.356;2023-06-14T11:20:10;28.90;58.50
19908;DHT22;10116;53.112;7.356;2023-06-14T11:22:41;28.90;58.80
19908;DHT22;10116;53.112;7.356;2023-06-14T11:25:13;28.90;58.20
19908;DHT22;10116;53.112;7.356;2023-06-14T11:27:38;28.90;58.00
19908;DHT22;10116;53.112;7.356;2023-06-14T11:30:07;28.90;58.00
19908;DHT22;10116;53.112;7.356;2023-06-14T11:32:33;28.90;58.00
19908;DHT22;10116;53.112;7.356;2023-06-14T11:34:59;28.90;58.00
19908;DHT22;10116;53.112;7.356;2023-06-14T11:37:26;28.90;58.60
19908;DHT22;10116;53.112;7.356;2023-06-14T11:39:56;28.90;58.20
19908;DHT22;10116;53.112;7.356;2023-06-14T11:42:22;28.90;57.60
19908;DHT22;10116;53.112;7.356;2023-06-14T11:44:48;28.90;57.50
19908;DHT22;10116;53.112;7.356;2023-06-14T11:47:14;28.90;57.30
19908;DHT22;10116;53.112;7.356;2023-06-14T11:49:39;28.80;57.20
19908;DHT22;10116;53.112;7.356;2023-06-14T11:52:05;28.80;57.10
19908;DHT22;10116;53.112;7.356;2023-06-14T11:54:32;28.80;57.20
19908;DHT22;10116;53.112;7.356;2023-06-14T11:56:58;28.80;71.90
19908;DHT22;10116;53.112;7.356;2023-06-14T11:59:24;28.80;56.50
19908;DHT22;10116;53.112;7.356;2023-06-14T12:01:50;28.80;57.50
19908;DHT22;10116;53.112;7.356;2023-06-14T12:04:24;28.80;71.80
19908;DHT22;10116;53.112;7.356;2023-06-14T12:06:51;28.80;57.10
19908;DHT22;10116;53.112;7.356;2023-06-14T12:09:18;28.80;57.50
19908;DHT22;10116;53.112;7.356;2023-06-14T12:11:45;28.70;56.40
19908;DHT22;10116;53.112;7.356;2023-06-14T12:14:11;28.70;57.10
19908;DHT22;10116;53.112;7.356;2023-06-14T12:16:40;28.70;56.60
19908;DHT22;10116;53.112;7.356;2023-06-14T12:19:13;28.70;56.90
19908;DHT22;10116;53.112;7.356;2023-06-14T12:21:39;28.70;55.70
19908;DHT22;10116;53.112;7.356;2023-06-14T12:24:08;28.70;56.90
19908;DHT22;10116;53.112;7.356;2023-06-14T12:26:38;28.70;56.00
19908;DHT22;10116;53.112;7.356;2023-06-14T12:29:05;28.70;55.80
19908;DHT22;10116;53.112;7.356;2023-06-14T12:31:32;28.70;58.00
19908;DHT22;10116;53.112;7.356;2023-06-14T12:33:57;28.80;56.90
19908;DHT22;10116;53.112;7.356;2023-06-14T12:36:23;28.80;56.60
19908;DHT22;10116;53.112;7.356;2023-06-14T12:38:49;28.80;57.00
19908;DHT22;10116;53.112;7.356;2023-06-14T12:41:19;28.80;57.00
19908;DHT22;10116;53.112;7.356;2023-06-14T12:43:46;28.80;57.00
19908;DHT22;10116;53.112;7.356;2023-06-14T12:46:12;28.90;57.80
19908;DHT22;10116;53.112;7.356;2023-06-14T12:48:37;28.90;57.20
19908;DHT22;10116;53.112;7.356;2023-06-14T12:51:03;28.90;57.70
19908;DHT22;10116;53.112;7.356;2023-06-14T12:53:28;28.90;56.80
19908;DHT22;10116;53.112;7.356;2023-06-14T12:55:54;28.90;57.00
19908;DHT22;10116;53.112;7.356;2023-06-14T12:58:20;28.90;57.00
19908;DHT22;10116;53.112;7.356;2023-06-14T13:00:46;28.80;57.10
19908;DHT22;10116;53.112;7.356;2023-06-14T13:03:12;28.90;56.80
19908;DHT22;10116;53.112;7.356;2023-06-14T13:05:37;28.90;56.90
19908;DHT22;10116;53.112;7.356;2023-06-14T13:08:06;28.80;56.60
19908;DHT22;10116;53.112;7.356;2023-06-14T13:10:33;28.80;56.40
19908;DHT22;10116;53.112;7.356;2023-06-14T13:12:59;28.80;71.00
19908;DHT22;10116;53.112;7.356;2023-06-14T13:15:25;28.80;57.00
19908;DHT22;10116;53.112;7.356;2023-06-14T13:17:51;28.80;57.40
19908;DHT22;10116;53.112;7.356;2023-06-14T13:20:16;28.90;56.40
19908;DHT22;10116;53.112;7.356;2023-06-14T13:22:42;28.90;56.10
19908;DHT22;10116;53.112;7.356;2023-06-14T13:25:08;28.90;56.00
19908;DHT22;10116;53.112;7.356;2023-06-14T13:27:33;28.90;56.00
19908;DHT22;10116;53.112;7.356;2023-06-14T13:29:59;28.90;56.30
19908;DHT22;10116;53.112;7.356;2023-06-14T13:32:24;28.90;56.20
19908;DHT22;10116;53.112;7.356;2023-06-14T13:34:50;28.90;56.30
19908;DHT22;10116;53.112;7.356;2023-06-14T13:37:17;28.90;55.90
19908;DHT22;10116;53.112;7.356;2023-06-14T13:39:42;28.90;56.10
19908;DHT22;10116;53.112;7.356;2023-06-14T13:42:08;28.90;56.50
19908;DHT22;10116;53.112;7.356;2023-06-14T13:44:34;28.90;56.50
19908;DHT22;10116;53.112;7.356;2023-06-14T13:47:00;28.90;55.80
19908;DHT22;10116;53.112;7.356;2023-06-14T13:49:26;28.90;56.40
19908;DHT22;10116;53.112;7.356;2023-06-14T13:51:51;28.90;56.00
19908;DHT22;10116;53.112;7.356;2023-06-14T13:54:20;28.90;56.00
19908;DHT22;10116;53.112;7.356;2023-06-14T13:56:46;28.90;55.90
19908;DHT22;10116;53.112;7.356;2023-06-14T13:59:12;28.90;56.00
19908;DHT22;10116;53.112;7.356;2023-06-14T14:01:37;28.90;55.40
19908;DHT22;10116;53.112;7.356;2023-06-14T14:04:04;28.80;55.70
19908;DHT22;10116;53.112;7.356;2023-06-14T14:06:30;28.80;55.10
19908;DHT22;10116;53.112;7.356;2023-06-14T14:08:56;28.80;55.10
19908;DHT22;10116;53.112;7.356;2023-06-14T14:11:22;28.80;54.50
19908;DHT22;10116;53.112;7.356;2023-06-14T14:13:47;28.80;55.10
19908;DHT22;10116;53.112;7.356;2023-06-14T14:16:14;28.80;54.90
19908;DHT22;10116;53.112;7.356;2023-06-14T14:18:39;28.80;55.90
19908;DHT22;10116;53.112;7.356;2023-06-14T14:21:05;28.90;55.40
19908;DHT22;10116;53.112;7.356;2023-06-14T14:23:31;28.90;55.70
19908;DHT22;10116;53.112;7.356;2023-06-14T14:25:56;28.90;56.00
19908;DHT22;10116;53.112;7.356;2023-06-14T14:28:22;28.90;56.30
19908;DHT22;10116;53.112;7.356;2023-06-14T14:30:48;29.00;56.10
19908;DHT22;10116;53.112;7.356;2023-06-14T14:33:15;29.00;56.90
19908;DHT22;10116;53.112;7.356;2023-06-14T14:35:44;29.00;56.90
19908;DHT22;10116;53.112;7.356;2023-06-14T14:38:11;29.00;56.80
19908;DHT22;10116;53.112;7.356;2023-06-14T14:40:37;29.00;57.00
19908;DHT22;10116;53.112;7.356;2023-06-14T14:43:03;29.10;56.30
19908;DHT22;10116;53.112;7.356;2023-06-14T14:45:28;29.10;56.80
19908;DHT22;10116;53.112;7.356;2023-06-14T14:47:54;29.10;56.90
19908;DHT22;10116;53.112;7.356;2023-06-14T14:50:19;29.10;56.90
19908;DHT22;10116;53.112;7.356;2023-06-14T14:52:45;29.10;57.50
19908;DHT22;10116;53.112;7.356;2023-06-14T14:55:11;29.10;57.10
19908;DHT22;10116;53.112;7.356;2023-06-14T14:57:36;29.10;57.00
19908;DHT22;10116;53.112;7.356;2023-06-14T15:00:04;29.10;56.80
19908;DHT22;10116;53.112;7.356;2023-06-14T15:02:31;29.20;56.80
19908;DHT22;10116;53.112;7.356;2023-06-14T15:04:56;29.10;56.60
19908;DHT22;10116;53.112;7.356;2023-06-14T15:07:26;29.10;56.60
19908;DHT22;10116;53.112;7.356;2023-06-14T15:09:53;29.10;56.80
19908;DHT22;10116;53.112;7.356;2023-06-14T15:12:18;29.10;56.20
19908;DHT22;10116;53.112;7.356;2023-06-14T15:14:45;29.20;57.40
19908;DHT22;10116;53.112;7.356;2023-06-14T15:17:11;29.10;56.90
19908;DHT22;10116;53.112;7.356;2023-06-14T15:19:36;29.10;56.50
19908;DHT22;10116;53.112;7.356;2023-06-14T15:22:02;29.10;56.40
19908;DHT22;10116;53.112;7.356;2023-06-14T15:24:28;29.10;57.60
19908;DHT22;10116;53.112;7.356;2023-06-14T15:26:53;29.10;56.90
19908;DHT22;10116;53.112;7.356;2023-06-14T15:29:19;29.10;56.00
19908;DHT22;10116;53.112;7.356;2023-06-14T15:31:44;29.10;56.00
19908;DHT22;10116;53.112;7.356;2023-06-14T15:34:10;29.10;55.80
19908;DHT22;10116;53.112;7.356;2023-06-14T15:36:36;29.10;56.10
19908;DHT22;10116;53.112;7.356;2023-06-14T15:39:01;29.10;55.50
19908;DHT22;10116;53.112;7.356;2023-06-14T15:41:27;29.10;55.60
19908;DHT22;10116;53.112;7.356;2023-06-14T15:43:52;29.10;56.60
19908;DHT22;10116;53.112;7.356;2023-06-14T15:46:21;29.10;55.00
19908;DHT22;10116;53.112;7.356;2023-06-14T15:48:46;29.10;55.30
19908;DHT22;10116;53.112;7.356;2023-06-14T15:51:12;29.10;55.00